sensor_id;sensor_type;location;lat;lon;timestamp;pressure;altitude;pressure_sealevel;temperature;humidity
60319;BME280;46163;52.306;5.634;2023-05-02T00:01:01;101854.50;;;17.70;54.73
60319;BME280;46163;52.306;5.634;2023-05-02T00:03:30;101853.63;;;17.69;54.64
60319;BME280;46163;52.306;5.634;2023-05-02T00:05:56;101852.81;;;17.69;54.73
60319;BME280;46163;52.306;5.634;2023-05-02T00:08:22;101854.69;;;17.68;54.66
60319;BME280;46163;52.306;5.634;2023-05-02T00:10:47;101857.38;;;17.68;54.97
60319;BME280;46163;52.306;5.634;2023-05-02T00:13:13;101863.00;;;17.67;54.86
60319;BME280;46163;52.306;5.634;2023-05-02T00:15:38;101854.91;;;17.67;54.87
60319;BME280;46163;52.306;5.634;2023-05-02T00:18:04;101857.03;;;17.65;54.90
60319;BME280;46163;52.306;5.634;2023-05-02T00:20:29;101858.06;;;17.64;54.78
60319;BME280;46163;52.306;5.634;2023-05-02T00:22:55;101852.69;;;17.64;54.93
60319;BME280;46163;52.306;5.634;2023-05-02T00:25:21;101848.31;;;17.63;54.62
60319;BME280;46163;52.306;5.634;2023-05-02T00:27:47;101850.66;;;17.59;54.79
60319;BME280;46163;52.306;5.634;2023-05-02T00:30:15;101869.84;;;17.63;54.59
60319;BME280;46163;52.306;5.634;2023-05-02T00:32:40;101860.13;;;17.62;54.85
60319;BME280;46163;52.306;5.634;2023-05-02T00:35:06;101868.44;;;17.60;54.78
60319;BME280;46163;52.306;5.634;2023-05-02T00:37:32;101868.44;;;17.60;54.83
60319;BME280;46163;52.306;5.634;2023-05-02T00:39:57;101875.69;;;17.60;54.99
60319;BME280;46163;52.306;5.634;2023-05-02T00:42:23;101873.22;;;17.58;54.75
60319;BME280;46163;52.306;5.634;2023-05-02T00:44:48;101875.91;;;17.58;54.70
60319;BME280;46163;52.306;5.634;2023-05-02T00:47:14;101877.78;;;17.58;54.99
60319;BME280;46163;52.306;5.634;2023-05-02T00:49:40;101879.66;;;17.57;54.83
60319;BME280;46163;52.306;5.634;2023-05-02T00:52:07;101885.28;;;17.56;54.68
60319;BME280;46163;52.306;5.634;2023-05-02T00:54:33;101887.13;;;17.55;54.78
60319;BME280;46163;52.306;5.634;2023-05-02T00:56:58;101895.22;;;17.55;54.96
60319;BME280;46163;52.306;5.634;2023-05-02T00:59:24;101898.91;;;17.54;54.84
60319;BME280;46163;52.306;5.634;2023-05-02T01:02:03;101892.13;;;17.51;54.62
60319;BME280;46163;52.306;5.634;2023-05-02T01:05:01;101901.84;;;17.52;54.86
60319;BME280;46163;52.306;5.634;2023-05-02T01:10:48;101900.19;;;17.51;54.68
60319;BME280;46163;52.306;5.634;2023-05-02T01:13:23;101903.94;;;17.50;54.71
60319;BME280;46163;52.306;5.634;2023-05-02T01:15:52;101897.97;;;17.48;54.83
60319;BME280;46163;52.306;5.634;2023-05-02T01:18:22;101900.66;;;17.48;54.68
60319;BME280;46163;52.306;5.634;2023-05-02T01:20:55;101904.38;;;17.47;55.00
60319;BME280;46163;52.306;5.634;2023-05-02T01:23:30;101903.75;;;17.45;54.56
60319;BME280;46163;52.306;5.634;2023-05-02T01:28:56;101911.84;;;17.45;54.72
60319;BME280;46163;52.306;5.634;2023-05-02T01:31:24;101913.09;;;17.43;54.84
60319;BME280;46163;52.306;5.634;2023-05-02T01:33:53;101924.69;;;17.43;54.62
60319;BME280;46163;52.306;5.634;2023-05-02T01:36:22;101913.09;;;17.43;54.89
60319;BME280;46163;52.306;5.634;2023-05-02T01:38:51;101917.66;;;17.42;54.96
60319;BME280;46163;52.306;5.634;2023-05-02T01:41:18;101921.41;;;17.41;54.80
60319;BME280;46163;52.306;5.634;2023-05-02T01:43:46;101912.72;;;17.39;54.90
60319;BME280;46163;52.306;5.634;2023-05-02T01:46:14;101928.25;;;17.37;54.74
60319;BME280;46163;52.306;5.634;2023-05-02T01:48:43;101928.88;;;17.39;54.81
60319;BME280;46163;52.306;5.634;2023-05-02T01:51:10;101928.06;;;17.39;54.68
60319;BME280;46163;52.306;5.634;2023-05-02T01:53:37;101926.41;;;17.38;54.86
60319;BME280;46163;52.306;5.634;2023-05-02T01:56:04;101929.75;;;17.33;54.88
60319;BME280;46163;52.306;5.634;2023-05-02T01:58:31;101934.69;;;17.36;54.70
60319;BME280;46163;52.306;5.634;2023-05-02T02:01:15;101941.94;;;17.36;54.79
60319;BME280;46163;52.306;5.634;2023-05-02T02:03:42;101935.94;;;17.34;54.76
60319;BME280;46163;52.306;5.634;2023-05-02T02:06:09;101946.72;;;17.34;54.77
60319;BME280;46163;52.306;5.634;2023-05-02T02:08:35;101946.34;;;17.30;54.97
60319;BME280;46163;52.306;5.634;2023-05-02T02:11:08;101952.31;;;17.32;54.74
60319;BME280;46163;52.306;5.634;2023-05-02T02:13:38;101958.97;;;17.30;54.39
60319;BME280;46163;52.306;5.634;2023-05-02T02:16:11;101948.63;;;17.27;54.53
60319;BME280;46163;52.306;5.634;2023-05-02T02:18:41;101956.28;;;17.30;54.63
60319;BME280;46163;52.306;5.634;2023-05-02T02:21:10;101957.75;;;17.26;54.87
60319;BME280;46163;52.306;5.634;2023-05-02T02:23:37;101963.34;;;17.24;54.60
60319;BME280;46163;52.306;5.634;2023-05-02T02:26:03;101967.44;;;17.27;54.81
60319;BME280;46163;52.306;5.634;2023-05-02T02:28:30;101964.16;;;17.24;54.66
60319;BME280;46163;52.306;5.634;2023-05-02T02:30:56;101965.22;;;17.23;54.86
60319;BME280;46163;52.306;5.634;2023-05-02T02:33:23;101967.69;;;17.25;54.66
60319;BME280;46163;52.306;5.634;2023-05-02T02:36:00;101965.22;;;17.23;54.82
60319;BME280;46163;52.306;5.634;2023-05-02T02:38:47;101971.63;;;17.22;54.78
60319;BME280;46163;52.306;5.634;2023-05-02T02:41:27;101973.50;;;17.22;54.77
60319;BME280;46163;52.306;5.634;2023-05-02T02:47:15;101985.31;;;17.21;54.58
60319;BME280;46163;52.306;5.634;2023-05-02T02:50:26;101986.31;;;17.20;54.61
60319;BME280;46163;52.306;5.634;2023-05-02T02:52:58;101984.69;;;17.19;54.68
60319;BME280;46163;52.306;5.634;2023-05-02T02:55:47;101993.78;;;17.18;54.75
60319;BME280;46163;52.306;5.634;2023-05-02T03:01:03;101999.38;;;17.16;54.77
60319;BME280;46163;52.306;5.634;2023-05-02T03:03:31;102012.03;;;17.16;54.60
60319;BME280;46163;52.306;5.634;2023-05-02T03:05:58;102004.16;;;17.14;54.81
60319;BME280;46163;52.306;5.634;2023-05-02T03:08:24;102007.69;;;17.15;54.82
60319;BME280;46163;52.306;5.634;2023-05-02T03:10:50;102005.22;;;17.13;54.67
60319;BME280;46163;52.306;5.634;2023-05-02T03:13:15;102014.09;;;17.14;54.86
60319;BME280;46163;52.306;5.634;2023-05-02T03:18:09;102023.22;;;17.13;54.53
60319;BME280;46163;52.306;5.634;2023-05-02T03:20:35;102014.72;;;17.09;54.68
60319;BME280;46163;52.306;5.634;2023-05-02T03:23:00;102027.13;;;17.10;54.86
60319;BME280;46163;52.306;5.634;2023-05-02T03:25:26;102027.38;;;17.09;54.65
60319;BME280;46163;52.306;5.634;2023-05-02T03:27:52;102037.91;;;17.10;54.73
60319;BME280;46163;52.306;5.634;2023-05-02T03:30:18;102039.97;;;17.08;54.70
60319;BME280;46163;52.306;5.634;2023-05-02T03:32:43;102041.84;;;17.08;54.93
60319;BME280;46163;52.306;5.634;2023-05-02T03:35:09;102045.81;;;17.05;54.73
60319;BME280;46163;52.306;5.634;2023-05-02T03:37:34;102054.25;;;17.09;54.73
60319;BME280;46163;52.306;5.634;2023-05-02T03:40:00;102046.63;;;17.06;54.70
60319;BME280;46163;52.306;5.634;2023-05-02T03:42:25;102048.28;;;17.07;54.66
60319;BME280;46163;52.306;5.634;2023-05-02T03:44:52;102064.63;;;17.05;54.71
60319;BME280;46163;52.306;5.634;2023-05-02T03:47:18;102063.19;;;17.03;54.59
60319;BME280;46163;52.306;5.634;2023-05-02T03:49:43;102070.22;;;17.04;54.70
60319;BME280;46163;52.306;5.634;2023-05-02T03:52:08;102074.78;;;17.03;54.69
60319;BME280;46163;52.306;5.634;2023-05-02T03:54:34;102073.09;;;17.02;54.59
60319;BME280;46163;52.306;5.634;2023-05-02T03:57:00;102072.28;;;17.02;54.61
60319;BME280;46163;52.306;5.634;2023-05-02T03:59:25;102077.66;;;17.02;54.66
60319;BME280;46163;52.306;5.634;2023-05-02T04:01:51;102072.72;;;16.99;54.46
60319;BME280;46163;52.306;5.634;2023-05-02T04:04:17;102082.44;;;17.00;54.57
60319;BME280;46163;52.306;5.634;2023-05-02T04:06:42;102084.31;;;16.99;54.70
60319;BME280;46163;52.306;5.634;2023-05-02T04:09:07;102076.66;;;16.96;54.61
60319;BME280;46163;52.306;5.634;2023-05-02T04:11:33;102090.50;;;17.00;54.52
60319;BME280;46163;52.306;5.634;2023-05-02T04:13:58;102096.31;;;16.97;54.82
60319;BME280;46163;52.306;5.634;2023-05-02T04:16:24;102097.97;;;16.98;54.57
60319;BME280;46163;52.306;5.634;2023-05-02T04:18:50;102102.31;;;16.99;54.49
60319;BME280;46163;52.306;5.634;2023-05-02T04:21:15;102104.56;;;17.02;54.54
60319;BME280;46163;52.306;5.634;2023-05-02T04:23:41;102113.25;;;17.04;54.42
60319;BME280;46163;52.306;5.634;2023-05-02T04:26:06;102118.19;;;17.07;54.48
60319;BME280;46163;52.306;5.634;2023-05-02T04:28:34;102118.81;;;17.09;54.49
60319;BME280;46163;52.306;5.634;2023-05-02T04:30:59;102128.94;;;17.13;54.59
60319;BME280;46163;52.306;5.634;2023-05-02T04:33:25;102127.91;;;17.14;54.17
60319;BME280;46163;52.306;5.634;2023-05-02T04:35:50;102130.16;;;17.17;54.27
60319;BME280;46163;52.306;5.634;2023-05-02T04:38:17;102133.88;;;17.23;54.30
60319;BME280;46163;52.306;5.634;2023-05-02T04:40:42;102138.22;;;17.24;54.02
60319;BME280;46163;52.306;5.634;2023-05-02T04:43:08;102144.19;;;17.26;53.91
60319;BME280;46163;52.306;5.634;2023-05-02T04:45:35;102151.66;;;17.31;53.82
60319;BME280;46163;52.306;5.634;2023-05-02T04:48:01;102159.94;;;17.29;53.63
60319;BME280;46163;52.306;5.634;2023-05-02T04:50:29;102160.94;;;17.35;53.83
60319;BME280;46163;52.306;5.634;2023-05-02T04:52:56;102164.22;;;17.37;53.61
60319;BME280;46163;52.306;5.634;2023-05-02T04:55:24;102165.03;;;17.37;53.58
60319;BME280;46163;52.306;5.634;2023-05-02T04:57:49;102158.25;;;17.28;53.51
60319;BME280;46163;52.306;5.634;2023-05-02T05:00:15;102171.28;;;17.38;53.55
60319;BME280;46163;52.306;5.634;2023-05-02T05:02:41;102176.03;;;17.36;53.30
60319;BME280;46163;52.306;5.634;2023-05-02T05:05:09;102188.44;;;17.37;53.55
60319;BME280;46163;52.306;5.634;2023-05-02T05:07:34;102193.81;;;17.37;53.38
60319;BME280;46163;52.306;5.634;2023-05-02T05:10:00;102195.09;;;17.34;53.52
60319;BME280;46163;52.306;5.634;2023-05-02T05:12:25;102188.28;;;17.32;53.52
60319;BME280;46163;52.306;5.634;2023-05-02T05:14:51;102200.47;;;17.34;53.45
60319;BME280;46163;52.306;5.634;2023-05-02T05:17:17;102205.63;;;17.36;53.70
60319;BME280;46163;52.306;5.634;2023-05-02T05:19:42;102211.22;;;17.34;53.33
60319;BME280;46163;52.306;5.634;2023-05-02T05:22:07;102200.69;;;17.26;53.26
60319;BME280;46163;52.306;5.634;2023-05-02T05:24:34;102214.97;;;17.33;53.28
60319;BME280;46163;52.306;5.634;2023-05-02T05:26:59;102218.47;;;17.34;53.57
60319;BME280;46163;52.306;5.634;2023-05-02T05:29:25;102223.03;;;17.33;53.46
60319;BME280;46163;52.306;5.634;2023-05-02T05:31:50;102223.25;;;17.32;53.38
60319;BME280;46163;52.306;5.634;2023-05-02T05:34:16;102225.13;;;17.31;53.59
60319;BME280;46163;52.306;5.634;2023-05-02T05:36:42;102227.81;;;17.31;53.66
60319;BME280;46163;52.306;5.634;2023-05-02T05:39:07;102234.84;;;17.32;53.34
60319;BME280;46163;52.306;5.634;2023-05-02T05:41:34;102231.53;;;17.30;53.31
60319;BME280;46163;52.306;5.634;2023-05-02T05:43:59;102244.78;;;17.32;53.47
60319;BME280;46163;52.306;5.634;2023-05-02T05:46:25;102246.66;;;17.31;53.48
60319;BME280;46163;52.306;5.634;2023-05-02T05:48:50;102238.34;;;17.33;53.37
60319;BME280;46163;52.306;5.634;2023-05-02T05:51:16;102248.69;;;17.36;53.12
60319;BME280;46163;52.306;5.634;2023-05-02T05:53:41;102244.13;;;17.36;53.23
60319;BME280;46163;52.306;5.634;2023-05-02T05:56:08;102253.44;;;17.40;53.15
60319;BME280;46163;52.306;5.634;2023-05-02T05:58:34;102254.88;;;17.43;53.36
60319;BME280;46163;52.306;5.634;2023-05-02T06:01:00;102261.69;;;17.45;53.62
60319;BME280;46163;52.306;5.634;2023-05-02T06:03:26;102265.84;;;17.48;53.38
60319;BME280;46163;52.306;5.634;2023-05-02T06:05:52;102278.25;;;17.49;53.18
60319;BME280;46163;52.306;5.634;2023-05-02T06:08:18;102283.22;;;17.52;53.52
60319;BME280;46163;52.306;5.634;2023-05-02T06:10:43;102280.31;;;17.53;53.78
60319;BME280;46163;52.306;5.634;2023-05-02T06:13:09;102287.34;;;17.55;53.53
60319;BME280;46163;52.306;5.634;2023-05-02T06:15:34;102275.13;;;17.52;53.41
60319;BME280;46163;52.306;5.634;2023-05-02T06:17:59;102286.09;;;17.57;53.27
60319;BME280;46163;52.306;5.634;2023-05-02T06:20:25;102285.28;;;17.57;53.28
60319;BME280;46163;52.306;5.634;2023-05-02T06:22:50;102290.66;;;17.57;53.59
60319;BME280;46163;52.306;5.634;2023-05-02T06:25:16;102301.66;;;17.55;53.92
60319;BME280;46163;52.306;5.634;2023-05-02T06:27:41;102313.63;;;17.59;53.66
60319;BME280;46163;52.306;5.634;2023-05-02T06:30:07;102308.25;;;17.59;53.60
60319;BME280;46163;52.306;5.634;2023-05-02T06:32:33;102317.16;;;17.60;53.61
60319;BME280;46163;52.306;5.634;2023-05-02T06:34:58;102326.06;;;17.60;53.49
60319;BME280;46163;52.306;5.634;2023-05-02T06:37:24;102337.66;;;17.61;53.54
60319;BME280;46163;52.306;5.634;2023-05-02T06:39:50;102346.34;;;17.63;53.35
60319;BME280;46163;52.306;5.634;2023-05-02T06:42:15;102355.25;;;17.63;53.43
60319;BME280;46163;52.306;5.634;2023-05-02T06:44:41;102360.63;;;17.63;53.49
60319;BME280;46163;52.306;5.634;2023-05-02T06:47:06;102365.00;;;17.64;53.40
60319;BME280;46163;52.306;5.634;2023-05-02T06:49:32;102367.69;;;17.64;53.17
60319;BME280;46163;52.306;5.634;2023-05-02T06:51:57;102368.91;;;17.62;53.30
60319;BME280;46163;52.306;5.634;2023-05-02T06:54:23;102374.09;;;17.63;52.96
60319;BME280;46163;52.306;5.634;2023-05-02T06:56:49;102380.09;;;17.65;53.12
60319;BME280;46163;52.306;5.634;2023-05-02T06:59:14;102383.63;;;17.66;53.18
60319;BME280;46163;52.306;5.634;2023-05-02T07:01:43;102379.28;;;17.65;52.99
60319;BME280;46163;52.306;5.634;2023-05-02T07:04:08;102390.25;;;17.70;53.08
60319;BME280;46163;52.306;5.634;2023-05-02T07:06:34;102384.88;;;17.70;53.20
60319;BME280;46163;52.306;5.634;2023-05-02T07:09:00;102383.41;;;17.67;53.01
60319;BME280;46163;52.306;5.634;2023-05-02T07:11:25;102394.59;;;17.71;53.32
60319;BME280;46163;52.306;5.634;2023-05-02T07:13:52;102397.69;;;17.68;53.03
60319;BME280;46163;52.306;5.634;2023-05-02T07:16:17;102391.28;;;17.69;53.31
60319;BME280;46163;52.306;5.634;2023-05-02T07:18:43;102394.78;;;17.69;53.22
60319;BME280;46163;52.306;5.634;2023-05-02T07:21:10;102392.97;;;17.70;53.36
60319;BME280;46163;52.306;5.634;2023-05-02T07:23:38;102403.13;;;17.74;53.64
60319;BME280;46163;52.306;5.634;2023-05-02T07:26:03;102398.56;;;17.75;53.62
60319;BME280;46163;52.306;5.634;2023-05-02T07:28:32;102398.75;;;17.73;53.56
60319;BME280;46163;52.306;5.634;2023-05-02T07:30:58;102403.13;;;17.74;53.46
60319;BME280;46163;52.306;5.634;2023-05-02T07:33:26;102395.84;;;17.75;53.27
60319;BME280;46163;52.306;5.634;2023-05-02T07:35:51;102403.72;;;17.76;52.99
60319;BME280;46163;52.306;5.634;2023-05-02T07:38:17;102410.75;;;17.77;52.73
60319;BME280;46163;52.306;5.634;2023-05-02T07:40:43;102410.75;;;17.77;52.51
60319;BME280;46163;52.306;5.634;2023-05-02T07:43:09;102416.75;;;17.79;52.07
60319;BME280;46163;52.306;5.634;2023-05-02T07:45:35;102424.00;;;17.79;52.51
60319;BME280;46163;52.306;5.634;2023-05-02T07:48:00;102415.72;;;17.80;52.30
60319;BME280;46163;52.306;5.634;2023-05-02T07:50:26;102411.38;;;17.79;52.40
60319;BME280;46163;52.306;5.634;2023-05-02T07:52:54;102417.19;;;17.83;51.91
60319;BME280;46163;52.306;5.634;2023-05-02T07:55:19;102412.00;;;17.82;52.30
60319;BME280;46163;52.306;5.634;2023-05-02T07:57:45;102423.59;;;17.82;51.95
60319;BME280;46163;52.306;5.634;2023-05-02T08:00:11;102423.59;;;17.82;52.04
60319;BME280;46163;52.306;5.634;2023-05-02T08:02:37;102428.16;;;17.82;52.17
60319;BME280;46163;52.306;5.634;2023-05-02T08:05:03;102422.78;;;17.82;52.24
60319;BME280;46163;52.306;5.634;2023-05-02T08:07:31;102437.06;;;17.82;52.11
60319;BME280;46163;52.306;5.634;2023-05-02T08:09:56;102404.56;;;17.70;52.16
60319;BME280;46163;52.306;5.634;2023-05-02T08:12:22;102429.81;;;17.83;51.90
60319;BME280;46163;52.306;5.634;2023-05-02T08:14:47;102433.34;;;17.83;51.82
60319;BME280;46163;52.306;5.634;2023-05-02T08:17:13;102436.84;;;17.84;51.89
60319;BME280;46163;52.306;5.634;2023-05-02T08:19:38;102436.03;;;17.83;51.52
60319;BME280;46163;52.306;5.634;2023-05-02T08:22:03;102437.91;;;17.83;51.40
60319;BME280;46163;52.306;5.634;2023-05-02T08:24:29;102453.41;;;17.87;51.57
60319;BME280;46163;52.306;5.634;2023-05-02T08:26:55;102448.25;;;17.86;51.82
60319;BME280;46163;52.306;5.634;2023-05-02T08:29:22;102443.06;;;17.77;51.62
60319;BME280;46163;52.306;5.634;2023-05-02T08:31:48;102464.19;;;17.87;51.52
60319;BME280;46163;52.306;5.634;2023-05-02T08:34:13;102463.34;;;17.87;51.43
60319;BME280;46163;52.306;5.634;2023-05-02T08:36:41;102456.75;;;17.83;51.56
60319;BME280;46163;52.306;5.634;2023-05-02T08:39:07;102471.44;;;17.87;51.60
60319;BME280;46163;52.306;5.634;2023-05-02T08:41:33;102472.88;;;17.89;51.24
60319;BME280;46163;52.306;5.634;2023-05-02T08:43:59;102478.91;;;17.91;50.99
60319;BME280;46163;52.306;5.634;2023-05-02T08:46:25;102472.47;;;17.92;50.89
60319;BME280;46163;52.306;5.634;2023-05-02T08:48:52;102476.59;;;17.95;50.93
60319;BME280;46163;52.306;5.634;2023-05-02T08:51:20;102474.53;;;17.97;51.36
60319;BME280;46163;52.306;5.634;2023-05-02T08:53:48;102472.47;;;17.99;51.02
60319;BME280;46163;52.306;5.634;2023-05-02T08:56:13;102480.94;;;18.02;50.79
60319;BME280;46163;52.306;5.634;2023-05-02T08:58:40;102473.25;;;18.06;50.62
60319;BME280;46163;52.306;5.634;2023-05-02T09:01:13;102481.16;;;18.07;50.69
60319;BME280;46163;52.306;5.634;2023-05-02T09:03:42;102481.78;;;18.10;50.63
60319;BME280;46163;52.306;5.634;2023-05-02T09:06:16;102495.84;;;18.12;50.50
60319;BME280;46163;52.306;5.634;2023-05-02T09:08:48;102496.69;;;18.12;49.99
60319;BME280;46163;52.306;5.634;2023-05-02T09:11:15;102498.94;;;18.15;50.16
60319;BME280;46163;52.306;5.634;2023-05-02T09:13:43;102505.38;;;18.14;50.16
60319;BME280;46163;52.306;5.634;2023-05-02T09:18:39;102513.44;;;18.21;50.59
60319;BME280;46163;52.306;5.634;2023-05-02T09:21:13;102517.19;;;18.20;50.13
60319;BME280;46163;52.306;5.634;2023-05-02T09:23:44;102524.00;;;18.22;50.35
60319;BME280;46163;52.306;5.634;2023-05-02T09:26:18;102528.19;;;18.25;50.17
60319;BME280;46163;52.306;5.634;2023-05-02T09:31:12;102519.66;;;18.28;49.94
60319;BME280;46163;52.306;5.634;2023-05-02T09:33:38;102524.41;;;18.32;49.97
60319;BME280;46163;52.306;5.634;2023-05-02T09:36:06;102526.09;;;18.33;49.55
60319;BME280;46163;52.306;5.634;2023-05-02T09:38:32;102527.09;;;18.32;49.71
60319;BME280;46163;52.306;5.634;2023-05-02T09:40:58;102531.25;;;18.35;49.73
60319;BME280;46163;52.306;5.634;2023-05-02T09:43:25;102532.47;;;18.32;49.84
60319;BME280;46163;52.306;5.634;2023-05-02T09:46:04;102545.13;;;18.39;49.71
60319;BME280;46163;52.306;5.634;2023-05-02T09:48:33;102547.81;;;18.39;48.88
60319;BME280;46163;52.306;5.634;2023-05-02T09:51:19;102544.31;;;18.38;49.21
60319;BME280;46163;52.306;5.634;2023-05-02T09:53:45;102542.44;;;18.39;48.81
60319;BME280;46163;52.306;5.634;2023-05-02T09:56:11;102552.78;;;18.42;49.46
60319;BME280;46163;52.306;5.634;2023-05-02T09:58:37;102552.78;;;18.42;49.22
60319;BME280;46163;52.306;5.634;2023-05-02T10:01:03;102549.06;;;18.43;49.30
60319;BME280;46163;52.306;5.634;2023-05-02T10:03:29;102549.91;;;18.43;49.20
60319;BME280;46163;52.306;5.634;2023-05-02T10:05:57;102549.69;;;18.45;49.19
60319;BME280;46163;52.306;5.634;2023-05-02T10:08:27;102550.50;;;18.45;49.31
60319;BME280;46163;52.306;5.634;2023-05-02T10:10:57;102551.34;;;18.46;49.26
60319;BME280;46163;52.306;5.634;2023-05-02T10:13:25;102555.69;;;18.47;49.33
60319;BME280;46163;52.306;5.634;2023-05-02T10:16:00;102553.81;;;18.47;49.31
60319;BME280;46163;52.306;5.634;2023-05-02T10:21:16;102558.16;;;18.48;47.43
60319;BME280;46163;52.306;5.634;2023-05-02T10:23:43;102559.00;;;18.49;46.18
60319;BME280;46163;52.306;5.634;2023-05-02T10:26:13;102534.56;;;18.37;46.60
60319;BME280;46163;52.306;5.634;2023-05-02T10:28:40;102534.34;;;18.39;46.47
60319;BME280;46163;52.306;5.634;2023-05-02T10:31:09;102553.38;;;18.50;46.65
60319;BME280;46163;52.306;5.634;2023-05-02T10:33:37;102556.72;;;18.52;46.67
60319;BME280;46163;52.306;5.634;2023-05-02T10:36:04;102550.28;;;18.53;45.90
60319;BME280;46163;52.306;5.634;2023-05-02T10:38:31;102561.25;;;18.58;48.70
60319;BME280;46163;52.306;5.634;2023-05-02T10:41:00;102557.75;;;18.51;48.73
60319;BME280;46163;52.306;5.634;2023-05-02T10:43:30;102578.44;;;18.64;48.97
60319;BME280;46163;52.306;5.634;2023-05-02T10:45:57;102561.44;;;18.63;48.97
60319;BME280;46163;52.306;5.634;2023-05-02T10:48:25;102575.56;;;18.66;49.17
60319;BME280;46163;52.306;5.634;2023-05-02T10:50:53;102582.63;;;18.67;49.09
60319;BME280;46163;52.306;5.634;2023-05-02T10:53:35;102588.00;;;18.67;48.99
60319;BME280;46163;52.306;5.634;2023-05-02T10:56:15;102579.91;;;18.67;48.79
60319;BME280;46163;52.306;5.634;2023-05-02T10:58:42;102580.56;;;18.69;49.43
60319;BME280;46163;52.306;5.634;2023-05-02T11:04:03;102586.78;;;18.69;48.72
60319;BME280;46163;52.306;5.634;2023-05-02T11:06:31;102585.13;;;18.68;49.01
60319;BME280;46163;52.306;5.634;2023-05-02T11:11:51;102591.75;;;18.66;49.01
60319;BME280;46163;52.306;5.634;2023-05-02T11:24:52;102589.03;;;18.72;48.71
60319;BME280;46163;52.306;5.634;2023-05-02T11:30:08;102591.75;;;18.72;48.70
60319;BME280;46163;52.306;5.634;2023-05-02T11:35:19;102595.88;;;18.75;48.43
60319;BME280;46163;52.306;5.634;2023-05-02T11:38:13;102587.38;;;18.64;48.90
60319;BME280;46163;52.306;5.634;2023-05-02T11:40:39;102605.22;;;18.79;48.81
60319;BME280;46163;52.306;5.634;2023-05-02T11:43:13;102603.50;;;18.84;48.55
60319;BME280;46163;52.306;5.634;2023-05-02T11:45:39;102595.00;;;18.87;48.38
60319;BME280;46163;52.306;5.634;2023-05-02T11:48:07;102597.69;;;18.94;48.74
60319;BME280;46163;52.306;5.634;2023-05-02T11:50:46;102598.91;;;18.98;48.79
60319;BME280;46163;52.306;5.634;2023-05-02T11:53:13;102594.13;;;19.00;48.88
60319;BME280;46163;52.306;5.634;2023-05-02T11:55:50;102611.97;;;19.01;48.69
60319;BME280;46163;52.306;5.634;2023-05-02T11:58:18;102609.47;;;19.00;48.82
60319;BME280;46163;52.306;5.634;2023-05-02T12:00:45;102607.81;;;19.05;48.65
60319;BME280;46163;52.306;5.634;2023-05-02T12:03:28;102607.97;;;19.10;48.73
60319;BME280;46163;52.306;5.634;2023-05-02T12:05:54;102608.81;;;19.11;48.58
60319;BME280;46163;52.306;5.634;2023-05-02T12:08:26;102605.09;;;19.12;48.83
60319;BME280;46163;52.306;5.634;2023-05-02T12:10:53;102614.00;;;19.12;48.76
60319;BME280;46163;52.306;5.634;2023-05-02T12:13:20;102625.00;;;19.11;48.45
60319;BME280;46163;52.306;5.634;2023-05-02T12:15:47;102620.66;;;19.10;48.46
60319;BME280;46163;52.306;5.634;2023-05-02T12:18:13;102621.88;;;19.14;48.23
60319;BME280;46163;52.306;5.634;2023-05-02T12:20:39;102618.16;;;19.15;47.82
60319;BME280;46163;52.306;5.634;2023-05-02T12:23:05;102630.16;;;19.19;48.26
60319;BME280;46163;52.306;5.634;2023-05-02T12:25:41;102628.28;;;19.19;47.93
60319;BME280;46163;52.306;5.634;2023-05-02T12:28:07;102633.03;;;19.24;47.68
60319;BME280;46163;52.306;5.634;2023-05-02T12:30:34;102628.88;;;19.28;47.78
60319;BME280;46163;52.306;5.634;2023-05-02T12:33:03;102646.94;;;19.28;48.13
60319;BME280;46163;52.306;5.634;2023-05-02T12:35:30;102638.22;;;19.26;48.19
60319;BME280;46163;52.306;5.634;2023-05-02T12:38:12;102646.09;;;19.27;48.06
60319;BME280;46163;52.306;5.634;2023-05-02T12:40:45;102641.94;;;19.31;48.23
60319;BME280;46163;52.306;5.634;2023-05-02T12:43:12;102632.59;;;19.34;48.27
60319;BME280;46163;52.306;5.634;2023-05-02T12:45:37;102640.25;;;19.37;47.76
60319;BME280;46163;52.306;5.634;2023-05-02T12:48:29;102646.28;;;19.39;48.08
60319;BME280;46163;52.306;5.634;2023-05-02T12:50:56;102651.00;;;19.43;48.22
60319;BME280;46163;52.306;5.634;2023-05-02T12:53:42;102645.81;;;19.48;48.41
60319;BME280;46163;52.306;5.634;2023-05-02T12:56:09;102643.06;;;19.55;48.05
60319;BME280;46163;52.306;5.634;2023-05-02T12:58:47;102651.19;;;19.55;48.24
60319;BME280;46163;52.306;5.634;2023-05-02T13:01:14;102669.44;;;19.60;48.30
60319;BME280;46163;52.306;5.634;2023-05-02T13:03:41;102668.00;;;19.64;47.91
60319;BME280;46163;52.306;5.634;2023-05-02T13:06:07;102674.00;;;19.66;48.19
60319;BME280;46163;52.306;5.634;2023-05-02T13:08:33;102668.59;;;19.66;48.22
60319;BME280;46163;52.306;5.634;2023-05-02T13:11:02;102669.84;;;19.63;47.80
60319;BME280;46163;52.306;5.634;2023-05-02T13:13:29;102667.13;;;19.63;47.91
60319;BME280;46163;52.306;5.634;2023-05-02T13:15:55;102670.69;;;19.64;48.38
60319;BME280;46163;52.306;5.634;2023-05-02T13:18:20;102664.63;;;19.68;48.07
60319;BME280;46163;52.306;5.634;2023-05-02T13:20:46;102662.53;;;19.70;47.80
60319;BME280;46163;52.306;5.634;2023-05-02T13:23:11;102668.94;;;19.76;47.85
60319;BME280;46163;52.306;5.634;2023-05-02T13:25:37;102665.56;;;19.81;47.53
60319;BME280;46163;52.306;5.634;2023-05-02T13:28:04;102670.56;;;19.84;47.70
60319;BME280;46163;52.306;5.634;2023-05-02T13:30:30;102666.34;;;19.88;47.73
60319;BME280;46163;52.306;5.634;2023-05-02T13:32:56;102662.19;;;19.92;47.69
60319;BME280;46163;52.306;5.634;2023-05-02T13:35:25;102671.50;;;19.96;47.38
60319;BME280;46163;52.306;5.634;2023-05-02T13:37:50;102657.56;;;19.99;47.69